Time,TemperatureF,DewpointF,PressureIn,WindDirection,WindDirectionDegrees,WindSpeedMPH,WindSpeedGustMPH,Humidity,HourlyPrecipIn,Conditions,Clouds,dailyrainin,SoftwareType,DateUTC
2013-06-08 00:02:00,67.9,44.5,29.57,NNE,27,1.0,1.0,43,0.00,,,0.00,HR-IXPWINDi_r2_v1.2.,2013-06-08 06:02:00,
2013-06-08 00:08:00,67.6,44.9,29.57,NNE,27,0.0,2.0,44,0.00,,,0.00,HR-IXPWINDi_r2_v1.2.,2013-06-08 06:08:00,
2013-06-08 00:13:00,67.2,43.9,29.57,NNE,27,0.0,2.0,43,0.00,,,0.00,HR-IXPWINDi_r2_v1.2.,2013-06-08 06:13:00,
2013-06-08 00:18:00,67.0,43.7,29.57,NNE,27,0.0,1.0,43,0.00,,,0.00,HR-IXPWINDi_r2_v1.2.,2013-06-08 06:18:00,
2013-06-08 00:24:00,66.7,43.5,29.57,NNE,27,0.0,1.0,43,0.00,,,0.00,HR-IXPWINDi_r2_v1.2.,2013-06-08 06:24:00,
2013-06-08 00:29:00,66.4,43.2,29.57,NNE,27,0.0,1.0,43,0.00,,,0.00,HR-IXPWINDi_r2_v1.2.,2013-06-08 06:29:00,
2013-06-08 00:34:00,66.1,42.9,29.57,NNE,27,0.0,1.0,43,0.00,,,0.00,HR-IXPWINDi_r2_v1.2.,2013-06-08 06:34:00,
2013-06-08 00:39:00,65.9,42.7,29.57,NNE,27,0.0,1.0,43,0.00,,,0.00,HR-IXPWINDi_r2_v1.2.,2013-06-08 06:39:00,
2013-06-08 00:44:00,65.9,43.9,29.57,NNE,27,1.0,1.0,45,0.00,,,0.00,HR-IXPWINDi_r2_v1.2.,2013-06-08 06:44:00,
2013-06-08 00:49:00,65.8,45.0,29.57,NNE,27,0.0,1.0,47,0.00,,,0.00,HR-IXPWINDi_r2_v1.2.,2013-06-08 06:49:00,
2013-06-08 00:54:00,65.5,45.2,29.57,NNE,27,0.0,1.0,48,0.00,,,0.00,HR-IXPWINDi_r2_v1.2.,2013-06-08 06:54:00,
2013-06-08 00:59:00,65.2,43.9,29.56,NNE,27,0.0,1.0,46,0.00,,,0.00,HR-IXPWINDi_r2_v1.2.,2013-06-08 06:59:00,
2013-06-08 01:04:00,64.7,44.5,29.56,NNE,27,0.0,1.0,48,0.00,,,0.00,HR-IXPWINDi_r2_v1.2.,2013-06-08 07:04:00,
2013-06-08 01:09:00,64.5,41.5,29.56,NNE,27,0.0,1.0,43,0.00,,,0.00,HR-IXPWINDi_r2_v1.2.,2013-06-08 07:09:00,
2013-06-08 01:14:00,64.8,43.5,29.56,North,353,0.0,3.0,46,0.00,,,0.00,HR-IXPWINDi_r2_v1.2.,2013-06-08 07:14:00,
2013-06-08 01:19:00,64.8,44.6,29.56,NNE,26,3.0,3.0,48,0.00,,,0.00,HR-IXPWINDi_r2_v1.2.,2013-06-08 07:19:00,
2013-06-08 01:25:00,64.5,44.3,29.56,NE,36,0.0,3.0,48,0.00,,,0.00,HR-IXPWINDi_r2_v1.2.,2013-06-08 07:25:00,
2013-06-08 01:30:00,64.2,43.5,29.56,NE,36,1.0,3.0,47,0.00,,,0.00,HR-IXPWINDi_r2_v1.2.,2013-06-08 07:30:00,
2013-06-08 01:35:00,64.1,44.5,29.56,NE,45,1.0,3.0,49,0.00,,,0.00,HR-IXPWINDi_r2_v1.2.,2013-06-08 07:35:00,
2013-06-08 01:40:00,63.9,43.2,29.56,NE,46,0.0,3.0,47,0.00,,,0.00,HR-IXPWINDi_r2_v1.2.,2013-06-08 07:40:00,
2013-06-08 01:45:00,63.7,43.6,29.56,NNW,338,1.0,2.0,48,0.00,,,0.00,HR-IXPWINDi_r2_v1.2.,2013-06-08 07:45:00,
2013-06-08 01:50:00,63.4,42.8,29.56,NNE,22,1.0,2.0,47,0.00,,,0.00,HR-IXPWINDi_r2_v1.2.,2013-06-08 07:50:00,
2013-06-08 01:56:00,63.3,43.2,29.56,NNE,32,1.0,2.0,48,0.00,,,0.00,HR-IXPWINDi_r2_v1.2.,2013-06-08 07:56:00,
2013-06-08 02:01:00,63.1,43.1,29.56,NNE,32,1.0,2.0,48,0.00,,,0.00,HR-IXPWINDi_r2_v1.2.,2013-06-08 08:01:00,
2013-06-08 02:07:00,63.0,42.4,29.56,ENE,73,0.0,2.0,47,0.00,,,0.00,HR-IXPWINDi_r2_v1.2.,2013-06-08 08:07:00,
2013-06-08 02:12:00,62.8,42.2,29.56,ENE,74,1.0,2.0,47,0.00,,,0.00,HR-IXPWINDi_r2_v1.2.,2013-06-08 08:12:00,
2013-06-08 02:17:00,62.5,42.5,29.57,ESE,115,0.0,1.0,48,0.00,,,0.00,HR-IXPWINDi_r2_v1.2.,2013-06-08 08:17:00,
2013-06-08 02:22:00,62.3,42.3,29.57,ESE,117,0.0,1.0,48,0.00,,,0.00,HR-IXPWINDi_r2_v1.2.,2013-06-08 08:22:00,
2013-06-08 02:27:00,62.3,42.3,29.57,ESE,117,0.0,1.0,48,0.00,,,0.00,HR-IXPWINDi_r2_v1.2.,2013-06-08 08:27:00,
2013-06-08 02:32:00,62.2,42.8,29.57,ESE,117,0.0,1.0,49,0.00,,,0.00,HR-IXPWINDi_r2_v1.2.,2013-06-08 08:32:00,
2013-06-08 02:37:00,62.1,42.7,29.56,ESE,117,0.0,1.0,49,0.00,,,0.00,HR-IXPWINDi_r2_v1.2.,2013-06-08 08:37:00,
2013-06-08 02:42:00,61.8,42.4,29.57,ESE,117,0.0,1.0,49,0.00,,,0.00,HR-IXPWINDi_r2_v1.2.,2013-06-08 08:42:00,
2013-06-08 02:47:00,61.5,42.1,29.57,ESE,117,0.0,0.0,49,0.00,,,0.00,HR-IXPWINDi_r2_v1.2.,2013-06-08 08:47:00,
2013-06-08 02:52:00,61.3,42.5,29.57,ESE,117,0.0,1.0,50,0.00,,,0.00,HR-IXPWINDi_r2_v1.2.,2013-06-08 08:52:00,
2013-06-08 02:57:00,61.0,43.2,29.57,ENE,68,1.0,2.0,52,0.00,,,0.00,HR-IXPWINDi_r2_v1.2.,2013-06-08 08:57:00,
2013-06-08 03:03:00,60.7,42.4,29.57,East,96,0.0,2.0,51,0.00,,,0.00,HR-IXPWINDi_r2_v1.2.,2013-06-08 09:03:00,
2013-06-08 03:08:00,60.7,43.4,29.57,East,92,0.0,2.0,53,0.00,,,0.00,HR-IXPWINDi_r2_v1.2.,2013-06-08 09:08:00,
2013-06-08 03:13:00,60.5,43.2,29.57,NNE,23,0.0,2.0,53,0.00,,,0.00,HR-IXPWINDi_r2_v1.2.,2013-06-08 09:13:00,
2013-06-08 03:18:00,60.3,43.1,29.57,NE,36,1.0,3.0,53,0.00,,,0.00,HR-IXPWINDi_r2_v1.2.,2013-06-08 09:18:00,
2013-06-08 03:24:00,60.3,41.5,29.58,East,79,0.0,3.0,50,0.00,,,0.00,HR-IXPWINDi_r2_v1.2.,2013-06-08 09:24:00,
2013-06-08 03:29:00,60.3,41.5,29.58,East,79,0.0,2.0,50,0.00,,,0.00,HR-IXPWINDi_r2_v1.2.,2013-06-08 09:29:00,
2013-06-08 03:34:00,60.3,41.0,29.57,East,96,0.0,1.0,49,0.00,,,0.00,HR-IXPWINDi_r2_v1.2.,2013-06-08 09:34:00,
2013-06-08 03:39:00,60.3,41.5,29.57,East,95,1.0,1.0,50,0.00,,,0.00,HR-IXPWINDi_r2_v1.2.,2013-06-08 09:39:00,
2013-06-08 03:44:00,60.1,41.9,29.58,East,94,0.0,1.0,51,0.00,,,0.00,HR-IXPWINDi_r2_v1.2.,2013-06-08 09:44:00,
2013-06-08 03:49:00,60.2,42.5,29.58,East,94,1.0,1.0,52,0.00,,,0.00,HR-IXPWINDi_r2_v1.2.,2013-06-08 09:49:00,
2013-06-08 03:54:00,60.1,42.4,29.57,East,91,0.0,2.0,52,0.00,,,0.00,HR-IXPWINDi_r2_v1.2.,2013-06-08 09:54:00,
2013-06-08 04:00:00,59.8,42.1,29.58,East,90,0.0,2.0,52,0.00,,,0.00,HR-IXPWINDi_r2_v1.2.,2013-06-08 10:00:00,
2013-06-08 04:05:00,59.6,42.4,29.58,East,91,0.0,1.0,53,0.00,,,0.00,HR-IXPWINDi_r2_v1.2.,2013-06-08 10:05:00,
2013-06-08 04:10:00,59.4,42.2,29.58,East,90,0.0,1.0,53,0.00,,,0.00,HR-IXPWINDi_r2_v1.2.,2013-06-08 10:10:00,
2013-06-08 04:15:00,59.4,42.7,29.58,NNW,343,1.0,2.0,54,0.00,,,0.00,HR-IXPWINDi_r2_v1.2.,2013-06-08 10:15:00,
2013-06-08 04:20:00,59.2,42.5,29.58,NE,34,0.0,2.0,54,0.00,,,0.00,HR-IXPWINDi_r2_v1.2.,2013-06-08 10:20:00,
2013-06-08 04:26:00,59.0,42.8,29.58,NNE,33,1.0,1.0,55,0.00,,,0.00,HR-IXPWINDi_r2_v1.2.,2013-06-08 10:26:00,
2013-06-08 04:31:00,58.9,42.2,29.58,NNE,33,0.0,1.0,54,0.00,,,0.00,HR-IXPWINDi_r2_v1.2.,2013-06-08 10:31:00,
2013-06-08 04:36:00,58.7,42.5,29.58,NNE,33,1.0,2.0,55,0.00,,,0.00,HR-IXPWINDi_r2_v1.2.,2013-06-08 10:36:00,
2013-06-08 04:42:00,58.8,42.6,29.58,NNE,33,2.0,2.0,55,0.00,,,0.00,HR-IXPWINDi_r2_v1.2.,2013-06-08 10:42:00,
2013-06-08 04:47:00,58.7,42.1,29.58,NNE,33,0.0,2.0,54,0.00,,,0.00,HR-IXPWINDi_r2_v1.2.,2013-06-08 10:47:00,
2013-06-08 04:52:00,58.6,41.5,29.58,NNE,32,0.0,2.0,53,0.00,,,0.00,HR-IXPWINDi_r2_v1.2.,2013-06-08 10:52:00,
2013-06-08 04:57:00,58.5,41.4,29.58,NNE,33,0.0,1.0,53,0.00,,,0.00,HR-IXPWINDi_r2_v1.2.,2013-06-08 10:57:00,
2013-06-08 05:02:00,58.3,41.2,29.58,NNE,33,0.0,0.0,53,0.00,,,0.00,HR-IXPWINDi_r2_v1.2.,2013-06-08 11:02:00,
2013-06-08 05:07:00,58.2,41.6,29.58,NNE,33,0.0,2.0,54,0.00,,,0.00,HR-IXPWINDi_r2_v1.2.,2013-06-08 11:07:00,
2013-06-08 05:12:00,58.2,42.1,29.59,NNE,32,0.0,2.0,55,0.00,,,0.00,HR-IXPWINDi_r2_v1.2.,2013-06-08 11:12:00,
2013-06-08 05:18:00,58.2,42.1,29.59,NNE,33,0.0,1.0,55,0.00,,,0.00,HR-IXPWINDi_r2_v1.2.,2013-06-08 11:18:00,
2013-06-08 05:23:00,58.2,42.5,29.59,NNE,32,1.0,2.0,56,0.00,,,0.00,HR-IXPWINDi_r2_v1.2.,2013-06-08 11:23:00,
2013-06-08 05:28:00,58.0,42.8,29.59,NNE,32,0.0,2.0,57,0.00,,,0.00,HR-IXPWINDi_r2_v1.2.,2013-06-08 11:28:00,
2013-06-08 05:33:00,57.8,41.7,29.59,NNE,33,0.0,1.0,55,0.00,,,0.00,HR-IXPWINDi_r2_v1.2.,2013-06-08 11:33:00,
2013-06-08 05:38:00,57.5,41.4,29.59,NNE,33,0.0,1.0,55,0.00,,,0.00,HR-IXPWINDi_r2_v1.2.,2013-06-08 11:38:00,
2013-06-08 05:43:00,57.7,41.1,29.59,NNE,33,0.0,1.0,54,0.00,,,0.00,HR-IXPWINDi_r2_v1.2.,2013-06-08 11:43:00,
2013-06-08 05:48:00,57.6,41.5,29.60,NNE,32,0.0,1.0,55,0.00,,,0.00,HR-IXPWINDi_r2_v1.2.,2013-06-08 11:48:00,
2013-06-08 05:54:00,57.6,42.0,29.60,North,356,0.0,1.0,56,0.00,,,0.00,HR-IXPWINDi_r2_v1.2.,2013-06-08 11:54:00,
2013-06-08 05:59:00,57.3,41.7,29.60,North,356,0.0,1.0,56,0.00,,,0.00,HR-IXPWINDi_r2_v1.2.,2013-06-08 11:59:00,
2013-06-08 06:04:00,57.5,42.8,29.60,NNE,22,1.0,2.0,58,0.00,,,0.00,HR-IXPWINDi_r2_v1.2.,2013-06-08 12:04:00,
2013-06-08 06:09:00,57.3,42.6,29.60,NNE,15,0.0,2.0,58,0.00,,,0.00,HR-IXPWINDi_r2_v1.2.,2013-06-08 12:09:00,
2013-06-08 06:14:00,57.0,42.3,29.60,NW,319,0.0,2.0,58,0.00,,,0.00,HR-IXPWINDi_r2_v1.2.,2013-06-08 12:14:00,
2013-06-08 06:19:00,56.8,43.0,29.61,NW,311,1.0,3.0,60,0.00,,,0.00,HR-IXPWINDi_r2_v1.2.,2013-06-08 12:19:00,
2013-06-08 06:25:00,56.5,42.7,29.61,WNW,300,1.0,3.0,60,0.00,,,0.00,HR-IXPWINDi_r2_v1.2.,2013-06-08 12:25:00,
2013-06-08 06:30:00,56.3,42.5,29.61,North,359,2.0,2.0,60,0.00,,,0.00,HR-IXPWINDi_r2_v1.2.,2013-06-08 12:30:00,
2013-06-08 06:35:00,56.3,42.5,29.61,NNE,18,1.0,3.0,60,0.00,,,0.00,HR-IXPWINDi_r2_v1.2.,2013-06-08 12:35:00,
2013-06-08 06:40:00,56.5,41.9,29.62,WSW,253,0.0,3.0,58,0.00,,,0.00,HR-IXPWINDi_r2_v1.2.,2013-06-08 12:40:00,
2013-06-08 06:50:00,58.1,42.4,29.62,WSW,253,0.0,1.0,56,0.00,,,0.00,HR-IXPWINDi_r2_v1.2.,2013-06-08 12:50:00,
2013-06-08 06:55:00,59.1,42.9,29.63,North,5,0.0,0.0,55,0.00,,,0.00,HR-IXPWINDi_r2_v1.2.,2013-06-08 12:55:00,
2013-06-08 07:00:00,60.3,43.5,29.63,North,6,0.0,0.0,54,0.00,,,0.00,HR-IXPWINDi_r2_v1.2.,2013-06-08 13:00:00,
2013-06-08 07:05:00,61.5,43.2,29.63,North,5,0.0,0.0,51,0.00,,,0.00,HR-IXPWINDi_r2_v1.2.,2013-06-08 13:05:00,
2013-06-08 07:10:00,62.2,43.3,29.63,North,5,0.0,0.0,50,0.00,,,0.00,HR-IXPWINDi_r2_v1.2.,2013-06-08 13:10:00,
2013-06-08 07:17:00,63.9,43.2,29.63,North,5,0.0,0.0,47,0.00,,,0.00,HR-IXPWINDi_r2_v1.2.,2013-06-08 13:17:00,
2013-06-08 07:22:00,65.3,43.4,29.63,North,6,0.0,0.0,45,0.00,,,0.00,HR-IXPWINDi_r2_v1.2.,2013-06-08 13:22:00,
2013-06-08 07:27:00,66.5,43.3,29.63,North,5,0.0,0.0,43,0.00,,,0.00,HR-IXPWINDi_r2_v1.2.,2013-06-08 13:27:00,
2013-06-08 07:32:00,65.9,42.1,29.63,NNW,345,0.0,0.0,42,0.00,,,0.00,HR-IXPWINDi_r2_v1.2.,2013-06-08 13:32:00,
2013-06-08 07:37:00,65.4,42.9,29.62,SW,226,0.0,0.0,44,0.00,,,0.00,HR-IXPWINDi_r2_v1.2.,2013-06-08 13:37:00,
2013-06-08 07:43:00,66.8,42.3,29.62,North,9,0.0,0.0,41,0.00,,,0.00,HR-IXPWINDi_r2_v1.2.,2013-06-08 13:43:00,
2013-06-08 07:48:00,68.1,42.8,29.62,North,9,0.0,0.0,40,0.00,,,0.00,HR-IXPWINDi_r2_v1.2.,2013-06-08 13:48:00,
2013-06-08 07:53:00,69.0,43.0,29.63,North,11,0.0,0.0,39,0.00,,,0.00,HR-IXPWINDi_r2_v1.2.,2013-06-08 13:53:00,
2013-06-08 07:58:00,69.4,42.0,29.62,SW,222,0.0,0.0,37,0.00,,,0.00,HR-IXPWINDi_r2_v1.2.,2013-06-08 13:58:00,
2013-06-08 08:03:00,69.6,42.8,29.63,ENE,63,1.0,2.0,38,0.00,,,0.00,HR-IXPWINDi_r2_v1.2.,2013-06-08 14:03:00,
2013-06-08 08:09:00,69.5,41.3,29.63,ENE,73,0.0,2.0,36,0.00,,,0.00,HR-IXPWINDi_r2_v1.2.,2013-06-08 14:09:00,
2013-06-08 08:14:00,70.2,42.0,29.62,ENE,77,0.0,2.0,36,0.00,,,0.00,HR-IXPWINDi_r2_v1.2.,2013-06-08 14:14:00,
2013-06-08 08:19:00,70.8,41.8,29.62,ESE,112,1.0,4.0,35,0.00,,,0.00,HR-IXPWINDi_r2_v1.2.,2013-06-08 14:19:00,
2013-06-08 08:24:00,71.1,42.0,29.62,ESE,120,1.0,4.0,35,0.00,,,0.00,HR-IXPWINDi_r2_v1.2.,2013-06-08 14:24:00,
2013-06-08 08:30:00,71.5,43.8,29.62,ENE,71,1.0,2.0,37,0.00,,,0.00,HR-IXPWINDi_r2_v1.2.,2013-06-08 14:30:00,
2013-06-08 08:35:00,72.0,42.8,29.62,ESE,108,1.0,4.0,35,0.00,,,0.00,HR-IXPWINDi_r2_v1.2.,2013-06-08 14:35:00,
2013-06-08 08:40:00,72.5,41.7,29.62,East,95,2.0,4.0,33,0.00,,,0.00,HR-IXPWINDi_r2_v1.2.,2013-06-08 14:40:00,
2013-06-08 08:45:00,72.8,41.2,29.62,ESE,123,1.0,6.0,32,0.00,,,0.00,HR-IXPWINDi_r2_v1.2.,2013-06-08 14:45:00,
2013-06-08 08:50:00,73.6,41.1,29.62,NE,44,5.0,6.0,31,0.00,,,0.00,HR-IXPWINDi_r2_v1.2.,2013-06-08 14:50:00,
2013-06-08 08:55:00,73.7,41.2,29.62,East,88,5.0,8.0,31,0.00,,,0.00,HR-IXPWINDi_r2_v1.2.,2013-06-08 14:55:00,
2013-06-08 09:01:00,74.0,41.4,29.62,ESE,123,1.0,8.0,31,0.00,,,0.00,HR-IXPWINDi_r2_v1.2.,2013-06-08 15:01:00,
2013-06-08 09:06:00,74.3,40.8,29.62,SE,139,1.0,7.0,30,0.00,,,0.00,HR-IXPWINDi_r2_v1.2.,2013-06-08 15:06:00,
2013-06-08 09:12:00,75.2,40.7,29.61,ESE,102,0.0,5.0,29,0.00,,,0.00,HR-IXPWINDi_r2_v1.2.,2013-06-08 15:12:00,
2013-06-08 09:17:00,75.9,40.4,29.61,ESE,102,1.0,3.0,28,0.00,,,0.00,HR-IXPWINDi_r2_v1.2.,2013-06-08 15:17:00,
2013-06-08 09:22:00,76.3,40.8,29.61,ENE,70,3.0,5.0,28,0.00,,,0.00,HR-IXPWINDi_r2_v1.2.,2013-06-08 15:22:00,
2013-06-08 09:27:00,76.4,42.7,29.61,ESE,108,1.0,6.0,30,0.00,,,0.00,HR-IXPWINDi_r2_v1.2.,2013-06-08 15:27:00,
2013-06-08 09:32:00,76.9,41.3,29.61,SSE,150,2.0,6.0,28,0.00,,,0.00,HR-IXPWINDi_r2_v1.2.,2013-06-08 15:32:00,
2013-06-08 09:37:00,77.3,40.7,29.61,ESE,114,5.0,7.0,27,0.00,,,0.00,HR-IXPWINDi_r2_v1.2.,2013-06-08 15:37:00,
2013-06-08 09:42:00,77.2,39.6,29.61,SE,125,3.0,7.0,26,0.00,,,0.00,HR-IXPWINDi_r2_v1.2.,2013-06-08 15:42:00,
2013-06-08 09:48:00,78.1,40.4,29.61,SSE,162,2.0,7.0,26,0.00,,,0.00,HR-IXPWINDi_r2_v1.2.,2013-06-08 15:48:00,
2013-06-08 09:53:00,79.2,39.3,29.61,SE,143,4.0,5.0,24,0.00,,,0.00,HR-IXPWINDi_r2_v1.2.,2013-06-08 15:53:00,
2013-06-08 09:58:00,79.7,39.7,29.61,SE,134,1.0,5.0,24,0.00,,,0.00,HR-IXPWINDi_r2_v1.2.,2013-06-08 15:58:00,
2013-06-08 10:03:00,79.8,40.8,29.61,East,94,4.0,5.0,25,0.00,,,0.00,HR-IXPWINDi_r2_v1.2.,2013-06-08 16:03:00,
2013-06-08 10:09:00,80.3,38.0,29.60,SSW,205,3.0,4.0,22,0.00,,,0.00,HR-IXPWINDi_r2_v1.2.,2013-06-08 16:09:00,
2013-06-08 10:14:00,81.1,37.5,29.60,SE,143,4.0,4.0,21,0.00,,,0.00,HR-IXPWINDi_r2_v1.2.,2013-06-08 16:14:00,
2013-06-08 10:19:00,81.8,36.8,29.60,SE,131,1.0,4.0,20,0.00,,,0.00,HR-IXPWINDi_r2_v1.2.,2013-06-08 16:19:00,
2013-06-08 10:24:00,82.2,37.1,29.60,SSW,198,1.0,4.0,20,0.00,,,0.00,HR-IXPWINDi_r2_v1.2.,2013-06-08 16:24:00,
2013-06-08 10:30:00,82.7,38.8,29.60,WSW,238,0.0,4.0,21,0.00,,,0.00,HR-IXPWINDi_r2_v1.2.,2013-06-08 16:30:00,
2013-06-08 10:35:00,83.8,37.1,29.60,ESE,117,1.0,3.0,19,0.00,,,0.00,HR-IXPWINDi_r2_v1.2.,2013-06-08 16:35:00,
2013-06-08 10:40:00,84.5,37.7,29.59,NNE,22,4.0,5.0,19,0.00,,,0.00,HR-IXPWINDi_r2_v1.2.,2013-06-08 16:40:00,
2013-06-08 10:45:00,84.4,38.9,29.59,North,10,1.0,5.0,20,0.00,,,0.00,HR-IXPWINDi_r2_v1.2.,2013-06-08 16:45:00,
2013-06-08 10:50:00,84.3,38.9,29.59,East,100,2.0,6.0,20,0.00,,,0.00,HR-IXPWINDi_r2_v1.2.,2013-06-08 16:50:00,
2013-06-08 10:56:00,84.7,40.4,29.59,West,273,5.0,6.0,21,0.00,,,0.00,HR-IXPWINDi_r2_v1.2.,2013-06-08 16:56:00,
2013-06-08 11:01:00,84.5,39.0,29.59,West,278,6.0,8.0,20,0.00,,,0.00,HR-IXPWINDi_r2_v1.2.,2013-06-08 17:01:00,
2013-06-08 11:06:00,84.3,38.9,29.59,WNW,284,2.0,8.0,20,0.00,,,0.00,HR-IXPWINDi_r2_v1.2.,2013-06-08 17:06:00,
2013-06-08 11:12:00,84.9,39.4,29.59,WNW,284,3.0,7.0,20,0.00,,,0.00,HR-IXPWINDi_r2_v1.2.,2013-06-08 17:12:00,
2013-06-08 11:17:00,85.3,39.7,29.59,WNW,288,3.0,7.0,20,0.00,,,0.00,HR-IXPWINDi_r2_v1.2.,2013-06-08 17:17:00,
2013-06-08 11:22:00,85.3,39.7,29.59,WNW,290,5.0,7.0,20,0.00,,,0.00,HR-IXPWINDi_r2_v1.2.,2013-06-08 17:22:00,
2013-06-08 11:27:00,85.9,40.2,29.59,WSW,256,2.0,7.0,20,0.00,,,0.00,HR-IXPWINDi_r2_v1.2.,2013-06-08 17:27:00,
2013-06-08 11:32:00,86.5,39.4,29.59,WNW,290,2.0,8.0,19,0.00,,,0.00,HR-IXPWINDi_r2_v1.2.,2013-06-08 17:32:00,
2013-06-08 11:38:00,86.3,39.2,29.59,SW,214,2.0,8.0,19,0.00,,,0.00,HR-IXPWINDi_r2_v1.2.,2013-06-08 17:38:00,
2013-06-08 11:43:00,86.9,39.7,29.58,SW,222,3.0,8.0,19,0.00,,,0.00,HR-IXPWINDi_r2_v1.2.,2013-06-08 17:43:00,
2013-06-08 11:48:00,86.4,39.3,29.59,ENE,77,2.0,8.0,19,0.00,,,0.00,HR-IXPWINDi_r2_v1.2.,2013-06-08 17:48:00,
2013-06-08 11:53:00,87.1,38.5,29.58,West,269,4.0,8.0,18,0.00,,,0.00,HR-IXPWINDi_r2_v1.2.,2013-06-08 17:53:00,
2013-06-08 11:58:00,87.4,38.7,29.58,SW,228,2.0,6.0,18,0.00,,,0.00,HR-IXPWINDi_r2_v1.2.,2013-06-08 17:58:00,
2013-06-08 12:03:00,88.5,39.6,29.58,South,181,2.0,6.0,18,0.00,,,0.00,HR-IXPWINDi_r2_v1.2.,2013-06-08 18:03:00,
2013-06-08 12:08:00,89.7,40.6,29.58,WNW,284,3.0,6.0,18,0.00,,,0.00,HR-IXPWINDi_r2_v1.2.,2013-06-08 18:08:00,
2013-06-08 12:13:00,89.2,38.7,29.58,NNE,20,5.0,6.0,17,0.00,,,0.00,HR-IXPWINDi_r2_v1.2.,2013-06-08 18:13:00,
2013-06-08 12:18:00,88.9,38.5,29.58,WNW,302,2.0,6.0,17,0.00,,,0.00,HR-IXPWINDi_r2_v1.2.,2013-06-08 18:18:00,
2013-06-08 12:24:00,88.3,38.0,29.58,WNW,290,2.0,7.0,17,0.00,,,0.00,HR-IXPWINDi_r2_v1.2.,2013-06-08 18:24:00,
2013-06-08 12:29:00,88.4,39.5,29.58,West,262,3.0,7.0,18,0.00,,,0.00,HR-IXPWINDi_r2_v1.2.,2013-06-08 18:29:00,
2013-06-08 12:34:00,89.5,37.4,29.58,WSW,242,3.0,6.0,16,0.00,,,0.00,HR-IXPWINDi_r2_v1.2.,2013-06-08 18:34:00,
2013-06-08 12:39:00,89.9,37.7,29.58,NNE,26,1.0,5.0,16,0.00,,,0.00,HR-IXPWINDi_r2_v1.2.,2013-06-08 18:39:00,
2013-06-08 12:44:00,89.7,35.9,29.58,SE,140,1.0,8.0,15,0.00,,,0.00,HR-IXPWINDi_r2_v1.2.,2013-06-08 18:44:00,
2013-06-08 12:50:00,89.4,37.3,29.57,NNE,26,6.0,8.0,16,0.00,,,0.00,HR-IXPWINDi_r2_v1.2.,2013-06-08 18:50:00,
2013-06-08 12:55:00,89.4,37.3,29.57,NNW,339,5.0,7.0,16,0.00,,,0.00,HR-IXPWINDi_r2_v1.2.,2013-06-08 18:55:00,
2013-06-08 13:00:00,89.6,37.5,29.57,WNW,288,2.0,7.0,16,0.00,,,0.00,HR-IXPWINDi_r2_v1.2.,2013-06-08 19:00:00,
2013-06-08 13:05:00,90.6,38.3,29.57,ENE,58,5.0,7.0,16,0.00,,,0.00,HR-IXPWINDi_r2_v1.2.,2013-06-08 19:05:00,
2013-06-08 13:10:00,90.4,36.5,29.57,NNE,32,6.0,12.0,15,0.00,,,0.00,HR-IXPWINDi_r2_v1.2.,2013-06-08 19:10:00,
2013-06-08 13:15:00,89.6,35.8,29.57,North,8,4.0,12.0,15,0.00,,,0.00,HR-IXPWINDi_r2_v1.2.,2013-06-08 19:15:00,
2013-06-08 13:20:00,89.6,35.8,29.57,WNW,302,0.0,8.0,15,0.00,,,0.00,HR-IXPWINDi_r2_v1.2.,2013-06-08 19:20:00,
2013-06-08 13:26:00,90.5,36.6,29.57,WNW,285,1.0,5.0,15,0.00,,,0.00,HR-IXPWINDi_r2_v1.2.,2013-06-08 19:26:00,
2013-06-08 13:31:00,91.2,37.1,29.57,NE,39,2.0,7.0,15,0.00,,,0.00,HR-IXPWINDi_r2_v1.2.,2013-06-08 19:31:00,
2013-06-08 13:36:00,91.6,35.7,29.56,East,99,0.0,7.0,14,0.00,,,0.00,HR-IXPWINDi_r2_v1.2.,2013-06-08 19:36:00,
2013-06-08 13:42:00,92.2,34.3,29.56,South,187,3.0,8.0,13,0.00,,,0.00,HR-IXPWINDi_r2_v1.2.,2013-06-08 19:42:00,
2013-06-08 13:47:00,93.1,36.9,29.56,South,173,5.0,8.0,14,0.00,,,0.00,HR-IXPWINDi_r2_v1.2.,2013-06-08 19:47:00,
2013-06-08 13:52:00,92.4,32.5,29.56,WNW,284,8.0,19.0,12,0.00,,,0.00,HR-IXPWINDi_r2_v1.2.,2013-06-08 19:52:00,
2013-06-08 13:58:00,91.0,35.2,29.56,NW,308,3.0,19.0,14,0.00,,,0.00,HR-IXPWINDi_r2_v1.2.,2013-06-08 19:58:00,
2013-06-08 14:03:00,90.7,33.1,29.56,NW,304,3.0,12.0,13,0.00,,,0.00,HR-IXPWINDi_r2_v1.2.,2013-06-08 20:03:00,
2013-06-08 14:08:00,91.6,35.7,29.55,WNW,285,4.0,12.0,14,0.00,,,0.00,HR-IXPWINDi_r2_v1.2.,2013-06-08 20:08:00,
2013-06-08 14:13:00,92.1,36.1,29.55,NW,325,5.0,9.0,14,0.00,,,0.00,HR-IXPWINDi_r2_v1.2.,2013-06-08 20:13:00,
2013-06-08 14:19:00,91.9,32.1,29.55,WNW,286,3.0,8.0,12,0.00,,,0.00,HR-IXPWINDi_r2_v1.2.,2013-06-08 20:19:00,
2013-06-08 14:24:00,92.4,32.5,29.55,West,276,2.0,8.0,12,0.00,,,0.00,HR-IXPWINDi_r2_v1.2.,2013-06-08 20:24:00,
2013-06-08 14:29:00,92.7,34.7,29.55,NNW,342,4.0,6.0,13,0.00,,,0.00,HR-IXPWINDi_r2_v1.2.,2013-06-08 20:29:00,
2013-06-08 14:34:00,93.2,33.1,29.54,SSE,163,1.0,8.0,12,0.00,,,0.00,HR-IXPWINDi_r2_v1.2.,2013-06-08 20:34:00,
2013-06-08 14:39:00,93.7,35.5,29.55,WNW,287,6.0,8.0,13,0.00,,,0.00,HR-IXPWINDi_r2_v1.2.,2013-06-08 20:39:00,
2013-06-08 14:44:00,93.4,33.2,29.54,WNW,300,4.0,11.0,12,0.00,,,0.00,HR-IXPWINDi_r2_v1.2.,2013-06-08 20:44:00,
2013-06-08 14:49:00,92.8,30.6,29.54,WNW,302,4.0,11.0,11,0.00,,,0.00,HR-IXPWINDi_r2_v1.2.,2013-06-08 20:49:00,
2013-06-08 14:54:00,91.7,29.8,29.54,WNW,290,5.0,11.0,11,0.00,,,0.00,HR-IXPWINDi_r2_v1.2.,2013-06-08 20:54:00,
2013-06-08 15:00:00,92.1,30.1,29.54,SSW,208,0.0,11.0,11,0.00,,,0.00,HR-IXPWINDi_r2_v1.2.,2013-06-08 21:00:00,
2013-06-08 15:05:00,93.8,31.4,29.54,West,274,2.0,7.0,11,0.00,,,0.00,HR-IXPWINDi_r2_v1.2.,2013-06-08 21:05:00,
2013-06-08 15:10:00,94.2,33.8,29.54,North,352,3.0,7.0,12,0.00,,,0.00,HR-IXPWINDi_r2_v1.2.,2013-06-08 21:10:00,
2013-06-08 15:15:00,94.6,29.6,29.53,South,176,2.0,8.0,10,0.00,,,0.00,HR-IXPWINDi_r2_v1.2.,2013-06-08 21:15:00,
2013-06-08 15:20:00,93.8,31.4,29.53,North,352,4.0,9.0,11,0.00,,,0.00,HR-IXPWINDi_r2_v1.2.,2013-06-08 21:20:00,
2013-06-08 15:26:00,93.8,31.4,29.53,North,1,1.0,9.0,11,0.00,,,0.00,HR-IXPWINDi_r2_v1.2.,2013-06-08 21:26:00,
2013-06-08 15:31:00,94.0,31.5,29.53,WSW,245,2.0,8.0,11,0.00,,,0.00,HR-IXPWINDi_r2_v1.2.,2013-06-08 21:31:00,
2013-06-08 15:36:00,94.8,32.1,29.53,West,269,8.0,12.0,11,0.00,,,0.00,HR-IXPWINDi_r2_v1.2.,2013-06-08 21:36:00,
2013-06-08 15:42:00,94.0,31.5,29.53,WNW,285,4.0,13.0,11,0.00,,,0.00,HR-IXPWINDi_r2_v1.2.,2013-06-08 21:42:00,
2013-06-08 15:47:00,93.8,33.5,29.53,SSE,166,3.0,13.0,12,0.00,,,0.00,HR-IXPWINDi_r2_v1.2.,2013-06-08 21:47:00,
2013-06-08 15:52:00,93.7,31.3,29.53,West,273,6.0,19.0,11,0.00,,,0.00,HR-IXPWINDi_r2_v1.2.,2013-06-08 21:52:00,
2013-06-08 15:57:00,93.5,31.2,29.53,WNW,287,3.0,19.0,11,0.00,,,0.00,HR-IXPWINDi_r2_v1.2.,2013-06-08 21:57:00,
2013-06-08 16:02:00,94.0,31.5,29.52,West,269,7.0,17.0,11,0.00,,,0.00,HR-IXPWINDi_r2_v1.2.,2013-06-08 22:02:00,
2013-06-08 16:07:00,94.3,31.8,29.52,WNW,291,11.0,13.0,11,0.00,,,0.00,HR-IXPWINDi_r2_v1.2.,2013-06-08 22:07:00,
2013-06-08 16:13:00,94.0,29.2,29.52,WNW,294,4.0,13.0,10,0.00,,,0.00,HR-IXPWINDi_r2_v1.2.,2013-06-08 22:13:00,
2013-06-08 16:18:00,94.6,32.0,29.52,West,274,3.0,11.0,11,0.00,,,0.00,HR-IXPWINDi_r2_v1.2.,2013-06-08 22:18:00,
2013-06-08 16:23:00,94.2,29.3,29.52,West,278,3.0,13.0,10,0.00,,,0.00,HR-IXPWINDi_r2_v1.2.,2013-06-08 22:23:00,
2013-06-08 16:29:00,94.4,29.5,29.52,WNW,285,9.0,13.0,10,0.00,,,0.00,HR-IXPWINDi_r2_v1.2.,2013-06-08 22:29:00,
2013-06-08 16:34:00,94.9,32.2,29.52,SSW,193,4.0,9.0,11,0.00,,,0.00,HR-IXPWINDi_r2_v1.2.,2013-06-08 22:34:00,
2013-06-08 16:39:00,94.8,29.8,29.52,SW,228,4.0,9.0,10,0.00,,,0.00,HR-IXPWINDi_r2_v1.2.,2013-06-08 22:39:00,
2013-06-08 16:44:00,94.8,29.8,29.51,WSW,256,1.0,9.0,10,0.00,,,0.00,HR-IXPWINDi_r2_v1.2.,2013-06-08 22:44:00,
2013-06-08 16:49:00,94.8,32.1,29.52,WNW,297,6.0,7.0,11,0.00,,,0.00,HR-IXPWINDi_r2_v1.2.,2013-06-08 22:49:00,
2013-06-08 16:54:00,94.3,31.8,29.52,WSW,246,0.0,10.0,11,0.00,,,0.00,HR-IXPWINDi_r2_v1.2.,2013-06-08 22:54:00,
2013-06-08 16:59:00,94.9,29.9,29.52,WNW,300,1.0,10.0,10,0.00,,,0.00,HR-IXPWINDi_r2_v1.2.,2013-06-08 22:59:00,
2013-06-08 17:04:00,95.3,32.5,29.52,NW,305,3.0,6.0,11,0.00,,,0.00,HR-IXPWINDi_r2_v1.2.,2013-06-08 23:04:00,
2013-06-08 17:09:00,95.0,29.9,29.51,WNW,294,4.0,8.0,10,0.00,,,0.00,HR-IXPWINDi_r2_v1.2.,2013-06-08 23:09:00,
2013-06-08 17:15:00,95.9,28.1,29.51,West,264,1.0,8.0,9,0.00,,,0.00,HR-IXPWINDi_r2_v1.2.,2013-06-08 23:15:00,
2013-06-08 17:20:00,95.8,30.6,29.51,WNW,293,2.0,7.0,10,0.00,,,0.00,HR-IXPWINDi_r2_v1.2.,2013-06-08 23:20:00,
2013-06-08 17:25:00,95.7,30.5,29.51,ESE,108,3.0,6.0,10,0.00,,,0.00,HR-IXPWINDi_r2_v1.2.,2013-06-08 23:25:00,
2013-06-08 17:30:00,95.6,30.4,29.51,WNW,291,3.0,5.0,10,0.00,,,0.00,HR-IXPWINDi_r2_v1.2.,2013-06-08 23:30:00,
2013-06-08 17:35:00,96.1,30.8,29.51,West,276,4.0,4.0,10,0.00,,,0.00,HR-IXPWINDi_r2_v1.2.,2013-06-08 23:35:00,
2013-06-08 17:40:00,95.9,28.1,29.50,NNE,20,6.0,11.0,9,0.00,,,0.00,HR-IXPWINDi_r2_v1.2.,2013-06-08 23:40:00,
2013-06-08 17:45:00,95.8,28.0,29.50,WNW,294,5.0,11.0,9,0.00,,,0.00,HR-IXPWINDi_r2_v1.2.,2013-06-08 23:45:00,
2013-06-08 17:50:00,95.4,30.3,29.50,WNW,284,6.0,11.0,10,0.00,,,0.00,HR-IXPWINDi_r2_v1.2.,2013-06-08 23:50:00,
2013-06-08 17:56:00,95.4,30.3,29.50,WSW,246,3.0,11.0,10,0.00,,,0.00,HR-IXPWINDi_r2_v1.2.,2013-06-08 23:56:00,
2013-06-08 18:01:00,95.9,28.1,29.50,WNW,284,7.0,11.0,9,0.00,,,0.00,HR-IXPWINDi_r2_v1.2.,2013-06-09 00:01:00,
2013-06-08 18:11:00,95.1,27.5,29.50,WNW,302,9.0,15.0,9,0.00,,,0.00,HR-IXPWINDi_r2_v1.2.,2013-06-09 00:11:00,
2013-06-08 18:16:00,95.0,27.4,29.50,WNW,293,9.0,12.0,9,0.00,,,0.00,HR-IXPWINDi_r2_v1.2.,2013-06-09 00:16:00,
2013-06-08 18:21:00,95.0,27.4,29.50,NW,322,3.0,12.0,9,0.00,,,0.00,HR-IXPWINDi_r2_v1.2.,2013-06-09 00:21:00,
2013-06-08 18:26:00,94.7,24.3,29.51,NW,305,9.0,12.0,8,0.00,,,0.00,HR-IXPWINDi_r2_v1.2.,2013-06-09 00:26:00,
2013-06-08 18:31:00,94.4,24.1,29.50,NW,325,10.0,14.0,8,0.00,,,0.00,HR-IXPWINDi_r2_v1.2.,2013-06-09 00:31:00,
2013-06-08 18:36:00,94.1,26.7,29.51,WNW,300,7.0,14.0,9,0.00,,,0.00,HR-IXPWINDi_r2_v1.2.,2013-06-09 00:36:00,
2013-06-08 18:42:00,94.2,26.8,29.51,North,351,5.0,14.0,9,0.00,,,0.00,HR-IXPWINDi_r2_v1.2.,2013-06-09 00:42:00,
2013-06-08 18:47:00,94.1,26.7,29.51,North,352,11.0,12.0,9,0.00,,,0.00,HR-IXPWINDi_r2_v1.2.,2013-06-09 00:47:00,
2013-06-08 18:52:00,93.9,26.6,29.51,NW,305,4.0,12.0,9,0.00,,,0.00,HR-IXPWINDi_r2_v1.2.,2013-06-09 00:52:00,
2013-06-08 18:57:00,93.7,26.4,29.51,NNW,335,4.0,12.0,9,0.00,,,0.00,HR-IXPWINDi_r2_v1.2.,2013-06-09 00:57:00,
2013-06-08 19:02:00,93.6,28.9,29.51,NNE,20,5.0,10.0,10,0.00,,,0.00,HR-IXPWINDi_r2_v1.2.,2013-06-09 01:02:00,
2013-06-08 19:07:00,93.6,26.3,29.51,West,267,3.0,8.0,9,0.00,,,0.00,HR-IXPWINDi_r2_v1.2.,2013-06-09 01:07:00,
2013-06-08 19:12:00,93.5,26.3,29.51,NNW,340,3.0,8.0,9,0.00,,,0.00,HR-IXPWINDi_r2_v1.2.,2013-06-09 01:12:00,
2013-06-08 19:18:00,93.5,28.8,29.51,NNE,20,4.0,8.0,10,0.00,,,0.00,HR-IXPWINDi_r2_v1.2.,2013-06-09 01:18:00,
2013-06-08 19:23:00,93.2,28.6,29.52,North,355,5.0,12.0,10,0.00,,,0.00,HR-IXPWINDi_r2_v1.2.,2013-06-09 01:23:00,
2013-06-08 19:28:00,92.9,28.4,29.51,North,6,3.0,12.0,10,0.00,,,0.00,HR-IXPWINDi_r2_v1.2.,2013-06-09 01:28:00,
2013-06-08 19:33:00,92.4,30.3,29.52,NNE,23,2.0,9.0,11,0.00,,,0.00,HR-IXPWINDi_r2_v1.2.,2013-06-09 01:33:00,
2013-06-08 19:38:00,92.1,30.1,29.52,NNW,336,3.0,7.0,11,0.00,,,0.00,HR-IXPWINDi_r2_v1.2.,2013-06-09 01:38:00,
2013-06-08 19:43:00,92.0,30.0,29.52,WNW,296,1.0,6.0,11,0.00,,,0.00,HR-IXPWINDi_r2_v1.2.,2013-06-09 01:43:00,
2013-06-08 19:48:00,92.2,30.2,29.52,NNW,348,3.0,5.0,11,0.00,,,0.00,HR-IXPWINDi_r2_v1.2.,2013-06-09 01:48:00,
2013-06-08 19:53:00,91.8,29.9,29.53,NNE,19,2.0,5.0,11,0.00,,,0.00,HR-IXPWINDi_r2_v1.2.,2013-06-09 01:53:00,
2013-06-08 19:58:00,91.2,27.1,29.53,NNE,12,2.0,8.0,10,0.00,,,0.00,HR-IXPWINDi_r2_v1.2.,2013-06-09 01:58:00,
2013-06-08 20:03:00,90.8,29.1,29.53,NNE,23,2.0,8.0,11,0.00,,,0.00,HR-IXPWINDi_r2_v1.2.,2013-06-09 02:03:00,
2013-06-08 20:09:00,90.6,28.9,29.53,NNE,30,2.0,5.0,11,0.00,,,0.00,HR-IXPWINDi_r2_v1.2.,2013-06-09 02:09:00,
2013-06-08 20:14:00,90.1,28.6,29.53,North,10,0.0,5.0,11,0.00,,,0.00,HR-IXPWINDi_r2_v1.2.,2013-06-09 02:14:00,
2013-06-08 20:19:00,89.9,28.4,29.53,North,360,2.0,3.0,11,0.00,,,0.00,HR-IXPWINDi_r2_v1.2.,2013-06-09 02:19:00,
2013-06-08 20:24:00,89.6,28.2,29.53,North,360,2.0,3.0,11,0.00,,,0.00,HR-IXPWINDi_r2_v1.2.,2013-06-09 02:24:00,
2013-06-08 20:29:00,88.8,29.7,29.54,North,350,1.0,3.0,12,0.00,,,0.00,HR-IXPWINDi_r2_v1.2.,2013-06-09 02:29:00,
2013-06-08 20:34:00,87.8,30.9,29.54,NW,305,0.0,3.0,13,0.00,,,0.00,HR-IXPWINDi_r2_v1.2.,2013-06-09 02:34:00,
2013-06-08 20:39:00,86.5,33.4,29.54,WSW,251,1.0,2.0,15,0.00,,,0.00,HR-IXPWINDi_r2_v1.2.,2013-06-09 02:39:00,
2013-06-08 20:45:00,85.1,33.9,29.54,WSW,256,1.0,2.0,16,0.00,,,0.00,HR-IXPWINDi_r2_v1.2.,2013-06-09 02:45:00,
2013-06-08 20:50:00,84.3,36.2,29.55,WSW,256,0.0,2.0,18,0.00,,,0.00,HR-IXPWINDi_r2_v1.2.,2013-06-09 02:50:00,
2013-06-08 20:55:00,83.3,35.4,29.55,West,262,1.0,2.0,18,0.00,,,0.00,HR-IXPWINDi_r2_v1.2.,2013-06-09 02:55:00,
2013-06-08 21:00:00,83.0,35.1,29.55,West,276,0.0,2.0,18,0.00,,,0.00,HR-IXPWINDi_r2_v1.2.,2013-06-09 03:00:00,
2013-06-08 21:05:00,82.3,35.9,29.55,West,276,0.0,2.0,19,0.00,,,0.00,HR-IXPWINDi_r2_v1.2.,2013-06-09 03:05:00,
2013-06-08 21:10:00,82.0,34.3,29.55,West,276,0.0,1.0,18,0.00,,,0.00,HR-IXPWINDi_r2_v1.2.,2013-06-09 03:10:00,
2013-06-08 21:15:00,81.3,38.8,29.56,North,359,1.0,1.0,22,0.00,,,0.00,HR-IXPWINDi_r2_v1.2.,2013-06-09 03:15:00,
2013-06-08 21:21:00,80.2,40.1,29.56,NNE,14,0.0,2.0,24,0.00,,,0.00,HR-IXPWINDi_r2_v1.2.,2013-06-09 03:21:00,
2013-06-08 21:26:00,79.1,40.2,29.57,NNE,15,0.0,2.0,25,0.00,,,0.00,HR-IXPWINDi_r2_v1.2.,2013-06-09 03:26:00,
2013-06-08 21:31:00,78.5,40.7,29.57,NNE,15,0.0,1.0,26,0.00,,,0.00,HR-IXPWINDi_r2_v1.2.,2013-06-09 03:31:00,
2013-06-08 21:36:00,78.1,40.4,29.57,NNE,14,0.0,1.0,26,0.00,,,0.00,HR-IXPWINDi_r2_v1.2.,2013-06-09 03:36:00,
2013-06-08 21:41:00,77.5,43.6,29.58,NNE,14,1.0,2.0,30,0.00,,,0.00,HR-IXPWINDi_r2_v1.2.,2013-06-09 03:41:00,
2013-06-08 21:46:00,76.8,42.1,29.58,NNE,14,0.0,2.0,29,0.00,,,0.00,HR-IXPWINDi_r2_v1.2.,2013-06-09 03:46:00,
2013-06-08 21:51:00,76.1,42.4,29.58,NNE,14,0.0,2.0,30,0.00,,,0.00,HR-IXPWINDi_r2_v1.2.,2013-06-09 03:51:00,
2013-06-08 21:56:00,75.5,40.1,29.59,NNE,14,0.0,1.0,28,0.00,,,0.00,HR-IXPWINDi_r2_v1.2.,2013-06-09 03:56:00,
2013-06-08 22:08:00,74.8,41.3,29.60,NNE,33,1.0,4.0,30,0.00,,,0.00,HR-IXPWINDi_r2_v1.2.,2013-06-09 04:08:00,
2013-06-08 22:13:00,75.2,38.9,29.60,SE,141,1.0,4.0,27,0.00,,,0.00,HR-IXPWINDi_r2_v1.2.,2013-06-09 04:13:00,
2013-06-08 22:18:00,75.9,39.5,29.60,SW,232,0.0,4.0,27,0.00,,,0.00,HR-IXPWINDi_r2_v1.2.,2013-06-09 04:18:00,
2013-06-08 22:24:00,76.6,36.0,29.60,SW,235,1.0,3.0,23,0.00,,,0.00,HR-IXPWINDi_r2_v1.2.,2013-06-09 04:24:00,
2013-06-08 22:29:00,76.6,36.0,29.61,West,278,2.0,3.0,23,0.00,,,0.00,HR-IXPWINDi_r2_v1.2.,2013-06-09 04:29:00,
2013-06-08 22:34:00,77.0,35.2,29.61,SW,226,1.0,3.0,22,0.00,,,0.00,HR-IXPWINDi_r2_v1.2.,2013-06-09 04:34:00,
2013-06-08 22:39:00,77.2,33.0,29.61,SW,229,1.0,3.0,20,0.00,,,0.00,HR-IXPWINDi_r2_v1.2.,2013-06-09 04:39:00,
2013-06-08 22:44:00,77.4,33.2,29.62,WSW,237,3.0,3.0,20,0.00,,,0.00,HR-IXPWINDi_r2_v1.2.,2013-06-09 04:44:00,
2013-06-08 22:50:00,77.5,33.3,29.62,SSW,212,0.0,3.0,20,0.00,,,0.00,HR-IXPWINDi_r2_v1.2.,2013-06-09 04:50:00,
2013-06-08 22:55:00,77.7,32.2,29.63,WNW,284,2.0,3.0,19,0.00,,,0.00,HR-IXPWINDi_r2_v1.2.,2013-06-09 04:55:00,
2013-06-08 23:00:00,78.0,32.4,29.63,SW,222,0.0,4.0,19,0.00,,,0.00,HR-IXPWINDi_r2_v1.2.,2013-06-09 05:00:00,
2013-06-08 23:05:00,77.8,33.5,29.63,SW,215,1.0,4.0,20,0.00,,,0.00,HR-IXPWINDi_r2_v1.2.,2013-06-09 05:05:00,
2013-06-08 23:10:00,77.7,33.4,29.63,SW,221,0.0,3.0,20,0.00,,,0.00,HR-IXPWINDi_r2_v1.2.,2013-06-09 05:10:00,
2013-06-08 23:16:00,77.4,33.2,29.63,West,281,0.0,2.0,20,0.00,,,0.00,HR-IXPWINDi_r2_v1.2.,2013-06-09 05:16:00,
2013-06-08 23:21:00,77.2,33.0,29.63,West,280,1.0,2.0,20,0.00,,,0.00,HR-IXPWINDi_r2_v1.2.,2013-06-09 05:21:00,
2013-06-08 23:26:00,77.0,32.9,29.64,WNW,290,2.0,2.0,20,0.00,,,0.00,HR-IXPWINDi_r2_v1.2.,2013-06-09 05:26:00,
2013-06-08 23:31:00,77.4,31.9,29.64,WNW,288,3.0,4.0,19,0.00,,,0.00,HR-IXPWINDi_r2_v1.2.,2013-06-09 05:31:00,
2013-06-08 23:36:00,77.8,32.2,29.64,West,278,1.0,4.0,19,0.00,,,0.00,HR-IXPWINDi_r2_v1.2.,2013-06-09 05:36:00,
2013-06-08 23:42:00,78.1,32.5,29.64,West,276,1.0,4.0,19,0.00,,,0.00,HR-IXPWINDi_r2_v1.2.,2013-06-09 05:42:00,
2013-06-08 23:47:00,78.1,32.5,29.64,West,270,1.0,3.0,19,0.00,,,0.00,HR-IXPWINDi_r2_v1.2.,2013-06-09 05:47:00,
2013-06-08 23:52:00,78.4,31.4,29.64,West,278,2.0,6.0,18,0.00,,,0.00,HR-IXPWINDi_r2_v1.2.,2013-06-09 05:52:00,
2013-06-08 23:57:00,78.5,31.5,29.65,WNW,296,2.0,6.0,18,0.00,,,0.00,HR-IXPWINDi_r2_v1.2.,2013-06-09 05:57:00,